Time;durP1;ratioP1;P1;durP2;ratioP2;P2;SDS_P1;SDS_P2;PMS_P1;PMS_P2;Temp;Humidity;BMP_temperature;BMP_pressure;BME280_temperature;BME280_humidity;BME280_pressure;Samples;Min_cycle;Max_cycle;Signal;HPM_P1;HPM_P2
2023/04/24 00:00:17;;;;;;;2.78;0.77;;;11.80;82.60;;;;;;5093611;28;20047;-81
2023/04/24 00:02:46;;;;;;;1.10;0.80;;;11.80;82.60;;;;;;5093713;28;20044;-81
2023/04/24 00:05:13;;;;;;;1.70;0.75;;;11.80;82.60;;;;;;5057189;28;20051;-81
2023/04/24 00:07:43;;;;;;;1.92;0.60;;;11.80;82.50;;;;;;5076519;28;20500;-81
2023/04/24 00:10:09;;;;;;;0.85;0.70;;;11.80;82.60;;;;;;5060107;28;20044;-81
2023/04/24 00:12:35;;;;;;;1.08;0.52;;;11.80;82.50;;;;;;5093363;28;20036;-81
2023/04/24 00:15:02;;;;;;;0.55;0.55;;;11.90;82.60;;;;;;5076649;28;20040;-81
2023/04/24 00:17:28;;;;;;;1.10;0.60;;;11.90;82.50;;;;;;5093455;28;20040;-81
2023/04/24 00:19:58;;;;;;;1.17;0.60;;;11.90;82.40;;;;;;5076573;28;20044;-81
2023/04/24 00:22:28;;;;;;;0.65;0.60;;;11.90;82.30;;;;;;5076429;28;20051;-81
2023/04/24 00:24:54;;;;;;;0.90;0.60;;;11.90;82.20;;;;;;5093289;28;20481;-81
2023/04/24 00:27:20;;;;;;;2.08;0.73;;;12.00;82.00;;;;;;5093233;28;20043;-81
2023/04/24 00:29:46;;;;;;;1.35;0.80;;;12.00;81.90;;;;;;5093254;28;20493;-81
2023/04/24 00:32:12;;;;;;;1.25;0.80;;;12.00;81.80;;;;;;5092841;28;20036;-81
2023/04/24 00:34:38;;;;;;;1.52;0.70;;;12.00;81.70;;;;;;5093286;28;20047;-81
2023/04/24 00:37:04;;;;;;;1.00;0.77;;;12.00;81.70;;;;;;5092999;28;20043;-81
2023/04/24 00:39:30;;;;;;;0.90;0.80;;;12.00;82.10;;;;;;5059126;28;20493;-81
2023/04/24 00:41:56;;;;;;;3.00;1.50;;;12.00;81.60;;;;;;5057922;28;20048;-81
2023/04/24 00:44:23;;;;;;;1.00;0.90;;;12.00;81.50;;;;;;5078986;28;20084;-81
2023/04/24 00:46:54;;;;;;;0.88;0.63;;;12.00;81.50;;;;;;5072659;28;20131;-81
2023/04/24 00:49:23;;;;;;;1.35;0.80;;;12.00;81.50;;;;;;5089290;28;20049;-81
2023/04/24 00:51:51;;;;;;;1.10;1.00;;;12.00;81.60;;;;;;5072763;28;20386;-81
2023/04/24 00:54:17;;;;;;;1.35;0.90;;;12.00;81.60;;;;;;5072611;28;20121;-81
2023/04/24 00:56:44;;;;;;;1.65;0.80;;;12.00;81.60;;;;;;5075848;28;20035;-81
2023/04/24 00:59:12;;;;;;;2.15;0.90;;;12.10;81.70;;;;;;5092903;28;20104;-81
2023/04/24 01:01:41;;;;;;;2.00;1.02;;;12.10;81.60;;;;;;5092820;28;20063;-81
2023/04/24 01:04:08;;;;;;;0.82;0.70;;;12.10;81.50;;;;;;5076085;28;20077;-81
2023/04/24 01:06:34;;;;;;;1.35;1.02;;;12.10;81.40;;;;;;5075316;28;20044;-81
2023/04/24 01:09:00;;;;;;;1.88;1.70;;;12.10;81.40;;;;;;5092534;28;20036;-81
2023/04/24 01:11:26;;;;;;;1.67;1.13;;;12.20;81.40;;;;;;5094012;28;20047;-81
2023/04/24 01:13:52;;;;;;;1.35;1.25;;;12.20;81.30;;;;;;5054182;28;20040;-81
2023/04/24 01:16:20;;;;;;;1.98;1.40;;;12.20;81.30;;;;;;5092310;28;20062;-81
2023/04/24 01:18:46;;;;;;;1.83;1.48;;;12.20;81.20;;;;;;5075581;28;20042;-81
2023/04/24 01:21:16;;;;;;;1.88;1.55;;;12.20;81.20;;;;;;5069655;28;20063;-81
2023/04/24 01:23:45;;;;;;;3.42;2.10;;;12.30;81.20;;;;;;5088957;28;20044;-82
2023/04/24 01:26:12;;;;;;;2.70;2.40;;;12.30;81.10;;;;;;5092173;28;20068;-81
2023/04/24 01:28:38;;;;;;;2.53;2.20;;;12.30;81.10;;;;;;5092263;28;20036;-81
2023/04/24 01:31:04;;;;;;;2.42;2.03;;;12.30;81.00;;;;;;5092038;28;20450;-81
2023/04/24 01:33:30;;;;;;;2.40;2.08;;;12.30;81.10;;;;;;5092216;28;20043;-81
2023/04/24 01:35:56;;;;;;;3.28;2.97;;;12.30;81.10;;;;;;5092341;28;20050;-81
2023/04/24 01:38:22;;;;;;;3.50;3.10;;;12.30;81.10;;;;;;5058451;28;20036;-81
2023/04/24 01:40:47;;;;;;;4.97;4.30;;;12.30;81.00;;;;;;5058086;28;20063;-81
2023/04/24 01:43:13;;;;;;;4.18;3.78;;;12.30;81.00;;;;;;5075132;28;20147;-80
2023/04/24 01:45:39;;;;;;;4.03;3.60;;;12.30;81.10;;;;;;5091877;28;20048;-80
2023/04/24 01:48:05;;;;;;;2.50;2.30;;;12.30;81.10;;;;;;5091958;28;20105;-82
2023/04/24 01:50:31;;;;;;;3.30;3.00;;;12.30;81.10;;;;;;5075076;28;20040;-81
2023/04/24 01:52:57;;;;;;;4.03;3.63;;;12.30;81.00;;;;;;5075042;28;20051;-80
2023/04/24 01:55:22;;;;;;;3.22;2.92;;;12.30;81.10;;;;;;5075015;28;20029;-81
2023/04/24 01:57:49;;;;;;;3.90;3.50;;;12.30;81.00;;;;;;5074913;28;20051;-81
2023/04/24 02:00:15;;;;;;;3.08;2.70;;;12.30;80.90;;;;;;5075300;28;20076;-82
2023/04/24 02:02:41;;;;;;;2.65;2.20;;;12.30;80.70;;;;;;5075005;28;20508;-81
2023/04/24 02:05:08;;;;;;;2.40;2.20;;;12.30;80.60;;;;;;5072829;28;20046;-81
2023/04/24 02:07:34;;;;;;;2.83;2.55;;;12.30;80.50;;;;;;5091608;28;20456;-80
2023/04/24 02:09:59;;;;;;;2.88;2.45;;;12.30;80.40;;;;;;5074814;28;20040;-81
2023/04/24 02:12:25;;;;;;;3.30;3.00;;;12.30;80.30;;;;;;5074868;28;20117;-80
2023/04/24 02:14:51;;;;;;;3.17;2.63;;;12.30;80.20;;;;;;5075111;28;20038;-81
2023/04/24 02:17:17;;;;;;;3.10;2.38;;;12.30;80.20;;;;;;5074504;28;20497;-80
2023/04/24 02:19:43;;;;;;;2.42;1.90;;;12.30;80.00;;;;;;5074819;28;20052;-81
2023/04/24 02:22:08;;;;;;;2.70;2.28;;;12.30;79.90;;;;;;5071275;28;20478;-81
2023/04/24 02:24:34;;;;;;;2.55;2.20;;;12.30;80.20;;;;;;5087054;28;20048;-80
2023/04/24 02:27:01;;;;;;;2.75;2.00;;;12.30;79.80;;;;;;5074718;28;20040;-81
2023/04/24 02:29:27;;;;;;;2.60;2.03;;;12.30;79.80;;;;;;5061979;28;20043;-80
2023/04/24 02:31:53;;;;;;;3.25;2.28;;;12.30;79.70;;;;;;5078401;28;20040;-81
2023/04/24 02:34:24;;;;;;;1.98;1.70;;;12.30;79.70;;;;;;5068656;28;20091;-80
2023/04/24 02:36:50;;;;;;;1.58;1.48;;;12.30;79.70;;;;;;5058764;28;20501;-80
2023/04/24 02:39:16;;;;;;;3.45;1.80;;;12.30;79.70;;;;;;5079448;28;20382;-80
2023/04/24 02:41:43;;;;;;;2.10;1.73;;;12.30;79.70;;;;;;5095030;28;20052;-81
2023/04/24 02:44:09;;;;;;;2.17;1.50;;;12.30;79.70;;;;;;5073573;28;20040;-80
2023/04/24 02:46:35;;;;;;;1.35;1.25;;;12.30;79.70;;;;;;5095028;28;20079;-80
2023/04/24 02:49:01;;;;;;;2.28;1.80;;;12.30;79.70;;;;;;5078285;28;20071;-81
2023/04/24 02:51:26;;;;;;;3.65;1.90;;;12.30;79.70;;;;;;5078300;28;20659;-81
2023/04/24 02:53:52;;;;;;;2.10;1.60;;;12.30;79.70;;;;;;5059703;28;20035;-81
2023/04/24 02:56:18;;;;;;;2.08;1.50;;;12.30;79.70;;;;;;5074613;28;20044;-81
2023/04/24 02:58:44;;;;;;;2.20;1.58;;;12.30;79.70;;;;;;5074569;28;20047;-81
2023/04/24 03:01:10;;;;;;;2.08;1.67;;;12.30;79.70;;;;;;5073848;28;20043;-81
2023/04/24 03:03:36;;;;;;;3.88;2.30;;;12.30;79.60;;;;;;5074752;28;20054;-81
2023/04/24 03:06:05;;;;;;;4.10;2.25;;;12.30;79.60;;;;;;5080608;28;20502;-81
2023/04/24 03:08:31;;;;;;;2.92;2.53;;;12.30;79.70;;;;;;5094840;28;20123;-81
2023/04/24 03:10:57;;;;;;;2.35;2.10;;;12.30;79.80;;;;;;5094667;28;20116;-81
2023/04/24 03:13:23;;;;;;;3.33;2.50;;;12.30;79.80;;;;;;5078085;28;20040;-81
2023/04/24 03:15:49;;;;;;;2.97;1.95;;;12.20;79.80;;;;;;5094640;28;20510;-81
2023/04/24 03:18:15;;;;;;;3.58;2.20;;;12.20;79.80;;;;;;5094520;28;20036;-80
2023/04/24 03:20:41;;;;;;;2.45;1.92;;;12.20;79.80;;;;;;5046332;28;20043;-80
2023/04/24 03:23:06;;;;;;;2.22;1.90;;;12.20;79.70;;;;;;5057453;28;20040;-81
2023/04/24 03:25:32;;;;;;;2.58;2.08;;;12.20;79.80;;;;;;5076509;28;20047;-81
2023/04/24 03:27:58;;;;;;;2.83;2.25;;;12.20;79.90;;;;;;5077616;28;20085;-81
2023/04/24 03:30:24;;;;;;;2.50;2.00;;;12.20;79.90;;;;;;5064844;28;20040;-81
2023/04/24 03:32:49;;;;;;;2.67;2.20;;;12.20;79.90;;;;;;5057098;28;20047;-81
2023/04/24 03:35:15;;;;;;;2.20;1.73;;;12.20;80.00;;;;;;5076300;28;20043;-81
2023/04/24 03:37:41;;;;;;;2.08;1.75;;;12.20;80.00;;;;;;5060598;28;20149;-80
2023/04/24 03:40:08;;;;;;;2.65;1.63;;;12.20;80.00;;;;;;5093100;28;20135;-81
2023/04/24 03:42:33;;;;;;;3.25;1.73;;;12.20;80.50;;;;;;5077428;28;20370;-81
2023/04/24 03:44:59;;;;;;;2.60;1.40;;;12.20;80.10;;;;;;5061031;28;20040;-80
2023/04/24 03:47:25;;;;;;;1.63;1.23;;;12.20;80.20;;;;;;5094060;28;20036;-81
2023/04/24 03:49:51;;;;;;;2.45;1.20;;;12.20;80.20;;;;;;5076799;28;20032;-80
2023/04/24 03:52:17;;;;;;;2.47;1.70;;;12.20;80.20;;;;;;5093818;28;20035;-81
2023/04/24 03:54:42;;;;;;;1.50;1.00;;;12.20;80.20;;;;;;5094017;28;20043;-81
2023/04/24 03:57:08;;;;;;;1.33;1.13;;;12.20;80.20;;;;;;5043735;28;20404;-80
2023/04/24 03:59:34;;;;;;;3.13;1.10;;;12.20;80.20;;;;;;5076823;28;20051;-81
2023/04/24 04:01:59;;;;;;;2.55;1.35;;;12.20;80.30;;;;;;5076853;28;20067;-81
2023/04/24 04:04:25;;;;;;;1.95;1.38;;;12.20;80.30;;;;;;5093800;28;20036;-81
2023/04/24 04:06:52;;;;;;;1.75;1.30;;;12.20;80.30;;;;;;5043472;28;20040;-80
2023/04/24 04:09:17;;;;;;;0.90;0.80;;;12.20;80.40;;;;;;5059880;28;20040;-81
2023/04/24 04:11:43;;;;;;;1.33;0.88;;;12.20;80.40;;;;;;5093013;28;20047;-81
2023/04/24 04:14:09;;;;;;;1.05;0.70;;;12.30;80.50;;;;;;5092515;28;20161;-80
2023/04/24 04:16:36;;;;;;;1.50;0.80;;;12.30;80.50;;;;;;5056312;28;20048;-81
2023/04/24 04:19:02;;;;;;;0.70;0.45;;;12.30;80.60;;;;;;5076273;28;20051;-82
2023/04/24 04:21:28;;;;;;;0.90;0.60;;;12.30;80.60;;;;;;5058075;28;20396;-82
2023/04/24 04:23:54;;;;;;;0.60;0.50;;;12.30;80.60;;;;;;5093115;28;20040;-82
2023/04/24 04:26:21;;;;;;;0.75;0.68;;;12.30;80.50;;;;;;5076350;28;20040;-82
2023/04/24 04:28:47;;;;;;;0.95;0.50;;;12.30;80.50;;;;;;5076355;28;20070;-82
2023/04/24 04:31:13;;;;;;;0.70;0.50;;;12.30;80.40;;;;;;5059600;28;20507;-82
2023/04/24 04:33:39;;;;;;;1.73;1.33;;;12.20;80.20;;;;;;5059955;28;20032;-81
2023/04/24 04:36:05;;;;;;;2.17;1.67;;;12.30;80.40;;;;;;5041766;28;20037;-83
2023/04/24 04:38:31;;;;;;;1.65;1.35;;;12.30;80.50;;;;;;5092717;28;20498;-82
2023/04/24 04:40:56;;;;;;;2.00;1.70;;;12.20;80.60;;;;;;5075790;28;20044;-82
2023/04/24 04:43:23;;;;;;;3.00;2.00;;;12.30;80.70;;;;;;5056061;28;20493;-82
2023/04/24 04:45:51;;;;;;;2.33;1.90;;;12.20;80.80;;;;;;5072675;28;20076;-82
2023/04/24 04:48:17;;;;;;;1.73;1.45;;;12.20;80.90;;;;;;5072654;28;20040;-82
2023/04/24 04:50:43;;;;;;;3.33;2.00;;;12.20;81.00;;;;;;5071702;28;20079;-81
2023/04/24 04:53:09;;;;;;;2.65;2.28;;;12.20;81.00;;;;;;5058566;28;20059;-82
2023/04/24 04:55:34;;;;;;;3.92;2.33;;;12.20;81.10;;;;;;5059152;28;20094;-82
2023/04/24 04:58:00;;;;;;;3.00;2.67;;;12.20;81.30;;;;;;5092718;28;20129;-81
2023/04/24 05:00:27;;;;;;;5.72;3.13;;;12.20;81.40;;;;;;5092548;28;20093;-81
2023/04/24 05:02:52;;;;;;;3.92;3.08;;;12.20;81.40;;;;;;5075851;28;20044;-81
2023/04/24 05:05:18;;;;;;;3.95;3.15;;;12.20;81.50;;;;;;5059244;28;20046;-81
2023/04/24 05:07:44;;;;;;;4.50;3.25;;;12.20;81.60;;;;;;5092577;28;20055;-81
2023/04/24 05:10:10;;;;;;;4.97;3.63;;;12.10;81.50;;;;;;5075313;28;20040;-81
2023/04/24 05:12:36;;;;;;;5.57;3.78;;;12.10;81.50;;;;;;5055165;28;20047;-81
2023/04/24 05:15:02;;;;;;;4.43;3.55;;;12.10;81.40;;;;;;5072469;28;20044;-82
2023/04/24 05:17:28;;;;;;;3.88;3.45;;;12.10;81.50;;;;;;5072007;28;20044;-82
2023/04/24 05:19:54;;;;;;;4.80;3.17;;;12.00;81.50;;;;;;5040168;28;20044;-81
2023/04/24 05:22:20;;;;;;;4.03;3.63;;;12.00;82.00;;;;;;5084975;28;20458;-81
2023/04/24 05:24:47;;;;;;;3.60;2.85;;;12.00;81.60;;;;;;5091920;28;20036;-82
2023/04/24 05:27:13;;;;;;;4.18;3.10;;;12.00;81.70;;;;;;5075188;28;20126;-82
2023/04/24 05:29:39;;;;;;;4.93;3.65;;;12.00;81.80;;;;;;5075383;28;20128;-81
2023/04/24 05:32:05;;;;;;;5.28;4.05;;;12.00;81.90;;;;;;5092101;28;20047;-81
2023/04/24 05:34:31;;;;;;;4.88;4.03;;;12.00;82.00;;;;;;5092275;28;20044;-82
2023/04/24 05:36:57;;;;;;;4.15;3.40;;;12.00;82.00;;;;;;5058792;28;20515;-82
2023/04/24 05:39:24;;;;;;;3.75;3.35;;;11.90;82.00;;;;;;5068354;28;20036;-80
2023/04/24 05:41:50;;;;;;;3.72;3.05;;;11.90;82.00;;;;;;5065950;28;20105;-80
2023/04/24 05:44:16;;;;;;;5.00;3.25;;;12.00;82.00;;;;;;5058713;28;20404;-81
2023/04/24 05:46:42;;;;;;;3.40;2.90;;;11.90;82.00;;;;;;5075477;28;20051;-81
2023/04/24 05:49:08;;;;;;;4.53;3.03;;;11.90;82.10;;;;;;5074927;28;20130;-81
2023/04/24 05:51:33;;;;;;;3.33;2.58;;;11.90;82.00;;;;;;5091741;28;20036;-81
2023/04/24 05:53:59;;;;;;;3.17;2.35;;;11.90;82.10;;;;;;5075123;28;20085;-81
2023/04/24 05:56:25;;;;;;;3.30;2.50;;;11.80;82.00;;;;;;5091907;28;20040;-81
2023/04/24 05:58:51;;;;;;;5.20;2.70;;;11.90;82.10;;;;;;5058338;28;20511;-80
2023/04/24 06:01:16;;;;;;;2.85;2.22;;;11.90;82.10;;;;;;5075280;28;20119;-80
2023/04/24 06:03:42;;;;;;;3.13;2.17;;;11.80;82.00;;;;;;5079354;28;20062;-81
2023/04/24 06:06:08;;;;;;;3.92;2.22;;;11.80;82.00;;;;;;5078766;28;20500;-81
2023/04/24 06:08:35;;;;;;;4.53;2.25;;;11.80;82.00;;;;;;5095773;28;20040;-81
2023/04/24 06:11:01;;;;;;;3.35;2.40;;;11.80;82.00;;;;;;5078604;28;20488;-82
2023/04/24 06:13:26;;;;;;;2.97;2.33;;;11.80;82.00;;;;;;5065750;28;20037;-81
2023/04/24 06:15:52;;;;;;;4.38;3.10;;;11.80;82.10;;;;;;5075713;28;20037;-81
2023/04/24 06:18:18;;;;;;;4.97;3.33;;;11.80;82.10;;;;;;5075344;28;20524;-81
2023/04/24 06:20:45;;;;;;;4.18;3.05;;;11.80;82.10;;;;;;5075280;28;20067;-82
2023/04/24 06:23:11;;;;;;;6.32;3.35;;;11.70;82.10;;;;;;5072904;28;20044;-81
2023/04/24 06:25:38;;;;;;;5.45;3.67;;;11.80;82.10;;;;;;5062262;28;20036;-81
2023/04/24 06:28:04;;;;;;;4.63;3.40;;;11.70;82.00;;;;;;5095478;28;20476;-81
2023/04/24 06:30:30;;;;;;;6.10;3.75;;;11.70;82.00;;;;;;5078495;28;20048;-80
2023/04/24 06:32:56;;;;;;;6.32;4.25;;;11.70;82.10;;;;;;5078403;28;20032;-80
2023/04/24 06:35:21;;;;;;;5.18;3.88;;;11.70;82.20;;;;;;5078817;28;20495;-81
2023/04/24 06:37:47;;;;;;;6.18;3.65;;;11.70;82.30;;;;;;5078456;28;20460;-81
2023/04/24 06:40:13;;;;;;;8.90;5.68;;;11.70;82.30;;;;;;5078752;28;20039;-81
2023/04/24 06:42:39;;;;;;;7.93;4.95;;;11.70;82.20;;;;;;5061481;28;20389;-81
2023/04/24 06:45:05;;;;;;;6.43;3.83;;;11.70;82.20;;;;;;5095282;28;20063;-81
2023/04/24 06:47:31;;;;;;;6.68;5.03;;;11.70;82.10;;;;;;5078134;28;20575;-81
2023/04/24 06:49:58;;;;;;;7.00;4.38;;;11.70;82.20;;;;;;5095057;28;20127;-81
2023/04/24 06:52:24;;;;;;;6.53;4.95;;;11.60;82.10;;;;;;5095038;28;20477;-81
2023/04/24 06:54:50;;;;;;;6.22;4.35;;;11.60;82.00;;;;;;5078069;28;20040;-81
2023/04/24 06:57:18;;;;;;;4.95;3.90;;;11.60;82.00;;;;;;5094978;28;20052;-80
2023/04/24 06:59:44;;;;;;;7.75;3.80;;;11.60;81.90;;;;;;5078437;28;20040;-81
2023/04/24 07:02:10;;;;;;;4.18;2.97;;;11.60;82.00;;;;;;5061163;28;20123;-81
2023/04/24 07:04:36;;;;;;;4.18;2.80;;;11.80;82.10;;;;;;5061246;28;20131;-80
2023/04/24 07:07:02;;;;;;;5.97;3.25;;;11.60;81.90;;;;;;5077891;28;20572;-80
2023/04/24 07:09:31;;;;;;;5.10;2.80;;;11.60;81.90;;;;;;5077986;28;20390;-80
2023/04/24 07:11:57;;;;;;;4.43;2.55;;;11.60;82.00;;;;;;5094588;28;20405;-81
2023/04/24 07:14:23;;;;;;;3.55;2.30;;;11.60;82.00;;;;;;5076677;28;20032;-80
2023/04/24 07:16:49;;;;;;;3.80;2.00;;;11.60;82.00;;;;;;5077840;28;20067;-81
2023/04/24 07:19:15;;;;;;;4.55;2.50;;;11.60;82.00;;;;;;5094578;28;20044;-81
2023/04/24 07:21:40;;;;;;;3.70;2.00;;;11.60;82.00;;;;;;5077819;28;20040;-81
2023/04/24 07:24:10;;;;;;;2.58;1.40;;;11.50;81.90;;;;;;5077391;28;20511;-80
2023/04/24 07:26:38;;;;;;;2.15;1.40;;;11.50;81.90;;;;;;5094560;28;20040;-81
2023/04/24 07:29:03;;;;;;;4.05;1.60;;;11.50;81.90;;;;;;5060933;28;20507;-81
2023/04/24 07:31:29;;;;;;;3.13;1.33;;;11.50;81.90;;;;;;5094083;28;20070;-81
2023/04/24 07:33:57;;;;;;;4.10;1.70;;;11.50;81.90;;;;;;5077685;28;20032;-81
2023/04/24 07:36:24;;;;;;;4.70;2.10;;;11.50;82.00;;;;;;5093798;28;20119;-80
2023/04/24 07:38:50;;;;;;;4.95;1.98;;;11.50;82.00;;;;;;5077156;28;20032;-81
2023/04/24 07:41:15;;;;;;;6.13;3.10;;;11.50;81.90;;;;;;5094048;28;20051;-81
2023/04/24 07:43:41;;;;;;;6.60;4.22;;;11.50;82.00;;;;;;5093682;28;20511;-81
2023/04/24 07:46:08;;;;;;;8.18;5.07;;;11.50;81.90;;;;;;5060029;28;20064;-81
2023/04/24 07:48:35;;;;;;;8.82;6.80;;;11.50;81.80;;;;;;5044230;28;20040;-80
2023/04/24 07:51:01;;;;;;;11.77;7.20;;;11.50;81.90;;;;;;5073597;28;20040;-80
2023/04/24 07:53:26;;;;;;;17.92;9.18;;;11.50;81.80;;;;;;5086312;28;20093;-82
2023/04/24 07:55:53;;;;;;;12.73;10.15;;;11.40;81.60;;;;;;5093586;28;20040;-80
2023/04/24 07:58:19;;;;;;;19.23;10.68;;;11.40;81.50;;;;;;5060546;28;20439;-80
2023/04/24 08:00:45;;;;;;;15.48;10.02;;;11.40;81.40;;;;;;5076899;28;20040;-79
2023/04/24 08:03:12;;;;;;;15.73;10.50;;;11.40;81.40;;;;;;5093273;28;20040;-80
2023/04/24 08:05:38;;;;;;;18.05;10.30;;;11.30;81.20;;;;;;5056805;28;20123;-80
2023/04/24 08:08:04;;;;;;;15.93;9.05;;;11.30;81.10;;;;;;5076413;28;20101;-80
2023/04/24 08:10:29;;;;;;;12.60;8.90;;;11.20;81.10;;;;;;5093095;28;20035;-80
2023/04/24 08:12:55;;;;;;;14.82;9.88;;;11.20;81.20;;;;;;5059909;28;20035;-80
2023/04/24 08:15:21;;;;;;;16.35;9.90;;;11.20;81.20;;;;;;5060224;28;20438;-81
2023/04/24 08:17:47;;;;;;;17.98;11.43;;;11.20;81.10;;;;;;5093385;28;20040;-80
2023/04/24 08:20:15;;;;;;;16.60;11.88;;;11.20;80.90;;;;;;5076473;28;20036;-79
2023/04/24 08:22:42;;;;;;;22.77;13.02;;;11.10;80.70;;;;;;5093079;28;20047;-80
2023/04/24 08:25:08;;;;;;;18.45;12.95;;;11.10;80.60;;;;;;5093224;28;20044;-80
2023/04/24 08:27:34;;;;;;;18.58;13.73;;;11.10;80.50;;;;;;5076211;28;20040;-81
2023/04/24 08:30:00;;;;;;;19.58;12.75;;;11.10;80.50;;;;;;5078067;28;20043;-79
2023/04/24 08:32:29;;;;;;;18.52;13.50;;;11.10;80.40;;;;;;5079744;28;20042;-80
2023/04/24 08:34:56;;;;;;;19.08;12.25;;;11.00;80.20;;;;;;5097021;28;20036;-79
2023/04/24 08:37:22;;;;;;;19.55;12.80;;;11.00;80.20;;;;;;5096552;28;20040;-79
2023/04/24 08:39:49;;;;;;;16.77;12.05;;;11.00;80.10;;;;;;5079841;28;20043;-79
2023/04/24 08:42:17;;;;;;;16.40;12.07;;;10.90;80.00;;;;;;5096143;28;20060;-79
2023/04/24 08:44:44;;;;;;;13.95;10.70;;;11.00;80.10;;;;;;5096314;28;20079;-80
2023/04/24 08:47:11;;;;;;;14.25;10.80;;;10.90;80.00;;;;;;5079674;28;20044;-79
2023/04/24 08:49:37;;;;;;;17.08;11.55;;;10.90;80.10;;;;;;5113009;28;20054;-80
2023/04/24 08:52:03;;;;;;;17.92;10.45;;;10.90;80.20;;;;;;5113192;28;20047;-79
2023/04/24 08:54:29;;;;;;;13.10;9.95;;;10.90;80.30;;;;;;5079198;28;20036;-80
2023/04/24 08:57:01;;;;;;;16.30;9.75;;;10.90;80.40;;;;;;5112955;28;20127;-80
2023/04/24 08:59:27;;;;;;;13.80;9.85;;;10.90;80.50;;;;;;5093244;28;20043;-80
2023/04/24 09:01:55;;;;;;;15.80;9.10;;;10.90;80.40;;;;;;5075660;28;20036;-80
2023/04/24 09:04:24;;;;;;;13.02;8.50;;;10.90;80.40;;;;;;5092379;28;20035;-79
2023/04/24 09:06:57;;;;;;;14.15;8.90;;;10.90;80.40;;;;;;5075790;28;20062;-79
2023/04/24 09:09:24;;;;;;;12.48;8.35;;;10.90;80.40;;;;;;5092254;28;20055;-81
2023/04/24 09:11:50;;;;;;;13.40;7.75;;;10.90;80.50;;;;;;5075376;28;20070;-79
2023/04/24 09:14:17;;;;;;;11.35;7.20;;;10.90;80.40;;;;;;5075623;28;20094;-80
2023/04/24 09:16:43;;;;;;;9.63;6.53;;;10.90;80.20;;;;;;5092423;28;20044;-80
2023/04/24 09:19:09;;;;;;;15.02;7.70;;;10.90;80.20;;;;;;5075389;28;20036;-80
2023/04/24 09:21:35;;;;;;;8.70;6.10;;;10.90;80.20;;;;;;5075199;28;20040;-80
2023/04/24 09:24:03;;;;;;;9.82;6.15;;;10.90;80.10;;;;;;5091664;28;20485;-79
2023/04/24 09:26:35;;;;;;;13.73;6.88;;;10.90;79.90;;;;;;5092296;28;20062;-79
2023/04/24 09:29:01;;;;;;;14.18;6.57;;;10.90;79.90;;;;;;5075329;28;20055;-80
2023/04/24 09:31:29;;;;;;;10.45;6.07;;;10.90;79.90;;;;;;5091994;28;20032;-80
2023/04/24 09:34:05;;;;;;;12.82;7.68;;;10.90;79.90;;;;;;5075408;28;20089;-79
2023/04/24 09:36:42;;;;;;;11.90;7.30;;;10.90;79.90;;;;;;5091811;28;20044;-80
2023/04/24 09:39:13;;;;;;;12.98;6.20;;;10.90;80.10;;;;;;5052462;28;20036;-79
2023/04/24 09:41:55;;;;;;;9.18;5.85;;;10.90;79.80;;;;;;5084341;28;20060;-79
2023/04/24 09:44:22;;;;;;;9.80;5.63;;;10.90;79.30;;;;;;5075101;28;20048;-79
2023/04/24 09:46:56;;;;;;;11.75;5.57;;;10.90;79.10;;;;;;5092162;28;20051;-79
2023/04/24 09:49:27;;;;;;;9.63;5.03;;;10.90;79.00;;;;;;5075692;28;20082;-79
2023/04/24 09:52:08;;;;;;;7.60;4.55;;;10.90;79.00;;;;;;5091858;28;20032;-79
2023/04/24 09:54:34;;;;;;;9.63;4.45;;;11.00;78.90;;;;;;5091632;28;20066;-79
2023/04/24 09:57:00;;;;;;;8.50;4.10;;;11.00;78.70;;;;;;5074569;28;20028;-79
2023/04/24 09:59:26;;;;;;;12.70;4.00;;;11.00;78.30;;;;;;5078438;28;20032;-79
2023/04/24 10:01:52;;;;;;;11.68;4.50;;;10.90;78.10;;;;;;5083733;28;20058;-79
2023/04/24 10:04:28;;;;;;;12.77;4.50;;;10.90;78.20;;;;;;5091944;28;20047;-80
2023/04/24 10:06:56;;;;;;;8.90;4.00;;;10.90;78.30;;;;;;5074767;28;20076;-79
2023/04/24 10:09:24;;;;;;;10.45;3.88;;;10.90;78.60;;;;;;5092060;28;20048;-79
2023/04/24 10:11:53;;;;;;;13.40;3.92;;;10.80;78.30;;;;;;5091664;28;20044;-79
2023/04/24 10:14:23;;;;;;;7.40;3.45;;;10.80;78.50;;;;;;5091672;28;20035;-79
2023/04/24 10:16:50;;;;;;;13.38;3.60;;;10.80;77.80;;;;;;5074691;28;20037;-80
2023/04/24 10:19:20;;;;;;;12.43;2.97;;;10.80;77.70;;;;;;5074687;28;20044;-80
2023/04/24 10:21:46;;;;;;;11.82;3.00;;;10.80;77.40;;;;;;5091839;28;20378;-80
2023/04/24 10:24:21;;;;;;;9.00;4.82;;;10.70;77.20;;;;;;5091999;28;20063;-80
2023/04/24 10:26:48;;;;;;;12.73;3.80;;;10.80;77.60;;;;;;5054712;28;20516;-80
2023/04/24 10:29:15;;;;;;;5.50;2.65;;;10.70;77.10;;;;;;5058660;28;20046;-80
2023/04/24 10:31:41;;;;;;;11.15;3.17;;;10.70;77.20;;;;;;5091237;28;20036;-80
2023/04/24 10:34:09;;;;;;;8.75;2.70;;;10.70;77.50;;;;;;5071347;28;20045;-79
2023/04/24 10:36:40;;;;;;;9.35;3.38;;;10.80;77.60;;;;;;5071296;28;20047;-79
2023/04/24 10:39:11;;;;;;;9.40;2.88;;;10.80;77.50;;;;;;5071525;28;20036;-79
2023/04/24 10:41:40;;;;;;;11.27;3.80;;;10.80;77.40;;;;;;5063290;28;20110;-80
2023/04/24 10:44:14;;;;;;;9.93;2.40;;;10.80;77.40;;;;;;5076542;28;20131;-80
2023/04/24 10:46:47;;;;;;;10.98;2.90;;;10.80;77.20;;;;;;5058410;28;20392;-79
2023/04/24 10:49:13;;;;;;;9.02;2.53;;;10.70;77.30;;;;;;5093397;28;20128;-79
2023/04/24 10:51:49;;;;;;;8.88;2.78;;;10.70;77.30;;;;;;5063385;28;20071;-79
2023/04/24 10:54:27;;;;;;;7.32;2.40;;;10.70;77.50;;;;;;5095045;28;20128;-79
2023/04/24 10:56:53;;;;;;;9.75;2.53;;;10.70;77.70;;;;;;5095070;28;20036;-79
2023/04/24 10:59:37;;;;;;;13.05;3.03;;;10.60;77.70;;;;;;5078019;28;20055;-79
2023/04/24 11:02:02;;;;;;;7.07;2.85;;;10.70;77.90;;;;;;5095233;28;20113;-79
2023/04/24 11:04:32;;;;;;;9.90;2.80;;;10.60;78.10;;;;;;5094488;28;20500;-80
2023/04/24 11:06:59;;;;;;;8.35;2.65;;;10.60;78.10;;;;;;5094771;28;20097;-79
2023/04/24 11:09:28;;;;;;;8.48;2.20;;;10.60;78.20;;;;;;5077380;28;20047;-79
2023/04/24 11:12:08;;;;;;;6.63;3.05;;;10.60;77.90;;;;;;5077905;28;20451;-80
2023/04/24 11:14:59;;;;;;;6.70;1.80;;;10.70;78.00;;;;;;5100598;28;20063;-79
2023/04/24 11:17:40;;;;;;;7.38;2.83;;;10.70;77.70;;;;;;5092101;28;20036;-80
2023/04/24 11:20:11;;;;;;;8.35;1.92;;;10.70;77.30;;;;;;5081329;28;20476;-80
2023/04/24 11:22:42;;;;;;;9.88;2.30;;;10.70;77.10;;;;;;5094616;28;20058;-80
2023/04/24 11:25:09;;;;;;;7.38;2.22;;;10.80;76.80;;;;;;5074151;28;20047;-81
2023/04/24 11:27:42;;;;;;;6.32;1.88;;;10.80;76.40;;;;;;5041168;28;20123;-80
2023/04/24 11:30:10;;;;;;;7.85;1.70;;;10.90;75.50;;;;;;5074026;28;20041;-80
2023/04/24 11:32:38;;;;;;;6.45;1.73;;;10.90;74.40;;;;;;5078630;28;20516;-80
2023/04/24 11:35:09;;;;;;;6.10;1.75;;;10.90;73.90;;;;;;5087725;28;20454;-79
2023/04/24 11:37:43;;;;;;;7.05;1.80;;;10.90;73.10;;;;;;5057465;28;20385;-80
2023/04/24 11:40:11;;;;;;;6.97;2.53;;;10.90;73.20;;;;;;5057729;28;20044;-80
2023/04/24 11:42:39;;;;;;;7.20;2.10;;;10.90;73.50;;;;;;5081405;28;20458;-80
2023/04/24 11:45:13;;;;;;;8.77;2.17;;;10.90;74.10;;;;;;5093800;28;20148;-80
2023/04/24 11:47:39;;;;;;;9.90;2.17;;;10.90;74.50;;;;;;5058668;28;20044;-80
2023/04/24 11:50:12;;;;;;;6.03;1.92;;;10.90;74.80;;;;;;5060086;28;20051;-80
2023/04/24 11:52:41;;;;;;;8.30;2.15;;;10.90;75.00;;;;;;5067959;28;20131;-80
2023/04/24 11:55:13;;;;;;;5.68;2.00;;;10.90;75.20;;;;;;5073758;28;20067;-80
2023/04/24 11:57:44;;;;;;;6.25;1.70;;;11.00;75.30;;;;;;5079490;28;20512;-79
2023/04/24 12:00:22;;;;;;;5.80;1.30;;;11.00;74.90;;;;;;5079101;28;20044;-80
2023/04/24 12:02:49;;;;;;;3.60;1.25;;;11.10;74.10;;;;;;5094256;28;20122;-80
2023/04/24 12:05:27;;;;;;;6.25;1.50;;;11.10;73.50;;;;;;5114339;28;20500;-80
2023/04/24 12:07:53;;;;;;;5.40;1.45;;;11.10;73.60;;;;;;5114283;28;20038;-80
2023/04/24 12:10:24;;;;;;;3.35;1.02;;;10.90;74.10;;;;;;5097329;28;20039;-80
2023/04/24 12:12:51;;;;;;;4.78;0.93;;;10.90;74.50;;;;;;5057114;28;20443;-80
2023/04/24 12:15:18;;;;;;;1.88;1.20;;;10.80;74.80;;;;;;5044117;28;20075;-79
2023/04/24 12:17:44;;;;;;;2.50;0.82;;;10.80;75.30;;;;;;5069447;28;20028;-80
2023/04/24 12:20:11;;;;;;;5.88;1.20;;;10.70;75.70;;;;;;5071258;28;20652;-80
2023/04/24 12:22:57;;;;;;;4.03;1.08;;;10.80;76.00;;;;;;5071255;28;20040;-80
2023/04/24 12:25:26;;;;;;;5.65;1.08;;;10.80;76.10;;;;;;5054805;28;20090;-81
2023/04/24 12:27:55;;;;;;;6.75;1.05;;;10.90;76.20;;;;;;5087522;28;20131;-77
2023/04/24 12:30:25;;;;;;;1.85;0.70;;;10.90;75.80;;;;;;5087544;28;20127;-78
2023/04/24 12:32:54;;;;;;;4.45;1.10;;;11.00;75.90;;;;;;5087282;28;20075;-79
2023/04/24 12:35:22;;;;;;;2.58;0.68;;;11.10;76.00;;;;;;5087271;28;20047;-78
2023/04/24 12:37:48;;;;;;;9.43;1.50;;;11.10;75.90;;;;;;5087586;28;20040;-79
2023/04/24 12:40:15;;;;;;;3.55;1.05;;;11.20;75.80;;;;;;5070520;28;20036;-79
2023/04/24 12:42:49;;;;;;;4.78;0.70;;;11.20;75.20;;;;;;5069766;28;20056;-82
2023/04/24 12:45:16;;;;;;;4.82;0.80;;;11.30;73.60;;;;;;5064353;28;20028;-80